Flight Track Log - Related Links

Times and Time Zones

All times are in EDT time to prevent confusion due to time zone crossing. See the SKW6306 flight status page for this flight to view local times or setup timezone preferences in your user account.

Time Position Orientation Groundspeed Altitude Reporting Facility
EDT Latitude Longitude Course Direction KTS MPH feet Rate Location/Type
Wed 06:31:08 PM 52.1500 -106.7333 360° North 10 12 1,600  Level Winnipeg Center
Wed 06:32:08 PM 52.1500 -106.7333 270° West 20 23 1,600  Level Winnipeg Center
Wed 06:33:08 PM 52.1500 -106.7500 270° West 20 23 1,600  Level Winnipeg Center
Wed 06:34:08 PM 52.1667 -106.7500 360° North 20 23 1,600 50 Level Winnipeg Center
Wed 06:35:08 PM 52.1500 -106.7333 148° Southeast 30 35 1,700 850 Climbing Winnipeg Center
Wed 06:36:08 PM 52.1500 -106.6667 90° East 140 161 3,300 1,900 Climbing Winnipeg Center
Wed 06:37:08 PM 52.1500 -106.5833 90° East 200 230 5,500 2,100 Climbing Winnipeg Center
Wed 06:38:08 PM 52.1000 -106.5000 134° Southeast 240 276 7,500 2,100 Climbing Winnipeg Center
Wed 06:39:08 PM 52.0167 -106.5333 194° South 270 311 9,700 2,300 Climbing Winnipeg Center
Wed 06:40:08 PM 51.9500 -106.5667 197° South 290 334 12,100 2,000 Climbing Winnipeg Center
Wed 06:41:08 PM 51.8667 -106.6333 206° Southwest 310 357 13,700 1,400 Climbing Winnipeg Center
Wed 06:42:08 PM 51.7833 -106.7000 206° Southwest 320 368 14,900 1,150 Climbing Winnipeg Center
Wed 06:43:08 PM 51.7167 -106.7667 212° Southwest 340 391 16,000 1,050 Climbing Winnipeg Center
Wed 06:44:08 PM 51.6167 -106.8500 207° Southwest 340 391 17,000 900 Climbing Winnipeg Center
Wed 06:45:08 PM 51.5500 -106.9500 223° Southwest 350 403 17,800 850 Climbing Winnipeg Center
Wed 06:46:08 PM 51.4667 -107.0333 212° Southwest 360 414 18,700 850 Climbing Winnipeg Center
Wed 06:47:08 PM 51.4000 -107.1500 228° Southwest 360 414 19,500 1,000 Climbing Winnipeg Center
Wed 06:48:08 PM 51.3333 -107.2833 231° Southwest 370 426 20,700 1,350 Climbing Winnipeg Center
Wed 06:49:08 PM 51.2667 -107.4167 231° Southwest 370 426 22,200 1,500 Climbing Winnipeg Center
Wed 06:50:08 PM 51.2167 -107.5500 239° Southwest 370 426 23,700 1,450 Climbing Winnipeg Center
Wed 06:51:08 PM 51.1333 -107.6000 201° Southwest 350 403 25,100 950 Climbing Winnipeg Center
Wed 06:52:08 PM 51.0333 -107.6333 192° South 360 414 25,600 500 Climbing Winnipeg Center
Wed 06:53:08 PM 50.9333 -107.6333 180° South 380 437 26,100 500 Climbing Winnipeg Center
Wed 06:54:08 PM 50.8167 -107.6667 190° South 390 449 26,600 550 Climbing Winnipeg Center
Wed 06:55:08 PM 50.7000 -107.6667 180° South 400 460 27,200 550 Climbing Winnipeg Center
Wed 06:56:08 PM 50.6000 -107.7000 192° South 400 460 27,700 450 Climbing Winnipeg Center
Wed 06:57:08 PM 50.4833 -107.7000 180° South 410 472 28,100 550 Climbing Winnipeg Center
Wed 06:58:08 PM 50.3667 -107.7167 185° South 410 472 28,800 650 Climbing Winnipeg Center
Wed 06:59:08 PM 50.2667 -107.7167 180° South 410 472 29,400 700 Climbing Winnipeg Center
Wed 07:00:08 PM 50.1500 -107.7167 180° South 400 460 30,200 800 Climbing Winnipeg Center
Wed 07:01:08 PM 50.0333 -107.7500 190° South 400 460 31,000 800 Climbing Winnipeg Center
Wed 07:02:08 PM 49.9167 -107.7500 180° South 400 460 31,800 800 Climbing Winnipeg Center
Wed 07:03:08 PM 49.8167 -107.7833 192° South 390 449 32,600 600 Climbing Winnipeg Center
Wed 07:04:08 PM 49.7167 -107.7833 180° South 380 437 33,000 200 Climbing Winnipeg Center
Wed 07:05:08 PM 49.6000 -107.8000 185° South 390 449 33,000  Level Winnipeg Center
Wed 07:06:08 PM 49.5000 -107.8000 180° South 400 460 33,000  Level Winnipeg Center
Wed 07:07:08 PM 49.3833 -107.8333 191° South 410 472 33,000  Level Winnipeg Center
Wed 07:08:08 PM 49.2667 -107.8333 180° South 410 472 33,000  Level Winnipeg Center
Wed 07:09:08 PM 49.1500 -107.8667 191° South 410 472 33,000  Level Winnipeg Center
Wed 07:10:08 PM 49.0500 -107.8667 180° South 420 483 33,000  Level Winnipeg Center
Wed 07:11:08 PM 48.9333 -107.8833 185° South 420 483 33,000  Level Winnipeg Center
Wed 07:12:08 PM 48.8167 -107.8833 180° South 410 472 33,000  Level Winnipeg Center
Wed 07:13:08 PM 48.7167 -107.8833 180° South 410 472 33,000  Level Winnipeg Center
Wed 07:14:08 PM 48.6000 -107.9167 191° South 410 472 33,000  Level Winnipeg Center
Wed 07:15:08 PM 48.4667 -107.9167 180° South 410 472 33,000  Level Winnipeg Center
Wed 07:16:08 PM 48.3667 -107.9333 186° South 410 472 33,000  Level Winnipeg Center
Wed 07:17:08 PM 48.2333 -107.9333 180° South 400 460 33,000  Level Winnipeg Center
Wed 07:18:08 PM 48.1333 -107.9667 193° South 400 460 33,000  Level Winnipeg Center
Wed 07:19:08 PM 48.0333 -107.9667 180° South 400 460 33,000  Level Winnipeg Center
Wed 07:20:08 PM 47.9167 -107.9833 185° South 400 460 33,000  Level Winnipeg Center
Wed 07:21:08 PM 47.8167 -107.9833 180° South 410 472 33,000  Level Winnipeg Center
Wed 07:22:08 PM 47.6833 -108.0167 190° South 400 460 33,000  Level Winnipeg Center
Wed 07:23:08 PM 47.5667 -108.0167 180° South 410 472 33,000  Level Winnipeg Center
Wed 07:24:34 PM 47.4533 -107.9833 169° South 412 474 33,000  Level Salt Lake Center
Wed 07:25:36 PM 47.3403 -107.9406 166° South 420 483 33,000  Level Salt Lake Center
Wed 07:26:38 PM 47.2050 -107.8917 166° South 417 480 33,000  Level Salt Lake Center
Wed 07:27:40 PM 47.0911 -107.8494 166° South 421 484 33,000  Level Salt Lake Center
Wed 07:28:41 PM 46.9906 -107.8136 166° South 415 478 33,000  Level Salt Lake Center
Wed 07:29:43 PM 46.8572 -107.7647 166° South 415 478 33,000  Level Salt Lake Center
Wed 07:30:45 PM 46.7458 -107.7253 166° South 413 475 33,000  Level Salt Lake Center
Wed 07:31:47 PM 46.6356 -107.6856 166° South 412 474 33,000  Level Salt Lake Center
Wed 07:32:49 PM 46.5181 -107.6406 165° South 408 470 33,000  Level Salt Lake Center
Wed 07:33:51 PM 46.3994 -107.5997 167° South 412 474 33,000  Level Salt Lake Center
Wed 07:34:53 PM 46.2917 -107.5606 166° South 405 466 33,000  Level Salt Lake Center
Wed 07:35:54 PM 46.1839 -107.5217 166° South 402 463 33,000  Level Salt Lake Center
Wed 07:36:56 PM 46.0664 -107.4808 166° South 403 464 33,000  Level Salt Lake Center
Wed 07:37:58 PM 45.9586 -107.4439 167° South 402 463 33,000  Level Salt Lake Center
Wed 07:39:00 PM 45.8419 -107.4022 166° South 401 461 33,000  Level Salt Lake Center
Wed 07:40:02 PM 45.7350 -107.3658 167° South 402 463 33,000  Level Salt Lake Center
Wed 07:41:03 PM 45.6167 -107.3264 167° South 404 465 33,000  Level Salt Lake Center
Wed 07:42:05 PM 45.5089 -107.2878 166° South 404 465 33,000  Level Salt Lake Center
Wed 07:43:07 PM 45.3897 -107.2469 166° South 408 470 33,000  Level Salt Lake Center
Wed 07:44:09 PM 45.2803 -107.2111 167° South 401 461 33,000  Level Salt Lake Center
Wed 07:45:11 PM 45.1647 -107.1725 167° South 405 466 33,000  Level Salt Lake Center
Wed 07:46:13 PM 45.0603 -107.1358 166° South 405 466 33,000  Level Salt Lake Center
Wed 07:47:14 PM 44.9558 -107.1006 167° South 403 464 33,000  Level Salt Lake Center
Wed 07:48:16 PM 44.8336 -107.0603 167° South 403 464 33,000  Level Salt Lake Center
Wed 07:49:18 PM 44.7286 -107.0331 170° South 402 463 33,000  Level Salt Lake Center
Wed 07:50:20 PM 44.6067 -107.0019 170° South 400 460 33,000  Level Salt Lake Center
Wed 07:51:21 PM 44.5000 -106.9764 170° South 403 464 33,000  Level Salt Lake Center
Wed 07:52:23 PM 44.3769 -106.9436 169° South 404 465 33,000  Level Salt Lake Center
Wed 07:53:25 PM 44.2686 -106.9178 170° South 408 470 33,000  Level Salt Lake Center
Wed 07:54:27 PM 44.1447 -106.8869 170° South 406 467 33,000  Level Salt Lake Center
Wed 07:55:29 PM 44.0383 -106.8608 170° South 405 466 33,000  Level Salt Lake Center
Wed 07:56:31 PM 43.9331 -106.8350 170° South 403 464 33,000  Level Salt Lake Center
Wed 07:57:32 PM 43.8100 -106.8039 170° South 403 464 33,000  Level Salt Lake Center
Wed 07:58:30 PM 43.7033 -106.7756 169° South 404 465 33,000  Level Denver Center
Wed 07:59:32 PM 43.5981 -106.7506 170° South 402 463 33,000  Level Denver Center
Wed 08:00:35 PM 43.4758 -106.7214 170° South 400 460 33,000  Level Denver Center
Wed 08:01:37 PM 43.3706 -106.6964 170° South 402 463 33,000  Level Denver Center
Wed 08:02:39 PM 43.2483 -106.6656 170° South 402 463 33,000  Level Denver Center
Wed 08:03:41 PM 43.1431 -106.6408 170° South 401 461 33,000  Level Denver Center
Wed 08:04:43 PM 43.0200 -106.6108 170° South 402 463 33,000  Level Denver Center
Wed 08:05:45 PM 42.9150 -106.5853 170° South 402 463 33,000  Level Denver Center
Wed 08:06:47 PM 42.7906 -106.5558 170° South 406 467 33,000  Level Denver Center
Wed 08:07:49 PM 42.6853 -106.5314 170° South 404 465 33,000  Level Denver Center
Wed 08:08:51 PM 42.5625 -106.5022 170° South 400 460 33,000  Level Denver Center
Wed 08:09:53 PM 42.4583 -106.4778 170° South 399 459 33,000  Level Denver Center
Wed 08:10:55 PM 42.3353 -106.4494 170° South 401 461 33,000  Level Denver Center
Wed 08:12:09 PM 42.1919 -106.4156 170° South 407 468 33,000  Level Denver Center
Wed 08:13:12 PM 42.0847 -106.3889 170° South 410 472 33,000  Level Denver Center
Wed 08:14:14 PM 41.9789 -106.3647 170° South 407 468 33,000  Level Denver Center
Wed 08:15:16 PM 41.8547 -106.3353 170° South 405 466 33,000  Level Denver Center
Wed 08:16:18 PM 41.7467 -106.3114 171° South 409 471 33,000  Level Denver Center
Wed 08:17:20 PM 41.6219 -106.2831 170° South 406 467 33,000  Level Denver Center
Wed 08:18:34 PM 41.4794 -106.2497 170° South 408 470 33,000  Level Denver Center
Wed 08:19:36 PM 41.3736 -106.2081 164° South 414 476 33,000  Level Denver Center
Wed 08:20:38 PM 41.2572 -106.1581 162° South 413 475 33,000 -145 Level Denver Center
Wed 08:21:40 PM 41.1444 -106.1108 162° South 421 484 32,700 -1,065 Descending Denver Center
Wed 08:22:42 PM 41.0217 -106.0425 157° South 425 489 30,800 -1,790 Descending Denver Center
Wed 08:23:44 PM 40.9186 -105.9850 157° South 433 498 29,000 -1,742 Descending Denver Center
Wed 08:24:46 PM 40.8414 -105.8669 131° Southeast 436 502 27,200 -1,839 Descending Denver Center
Wed 08:25:48 PM 40.7703 -105.7406 127° Southeast 428 493 25,200 -2,081 Descending Denver Center
Wed 08:26:50 PM 40.6869 -105.5908 126° Southeast 424 488 22,900 -1,887 Descending Denver Center
Wed 08:27:52 PM 40.6247 -105.4786 126° Southeast 387 445 21,300 -1,440 Descending Denver Center
Wed 08:28:55 PM 40.5706 -105.3794 126° Southeast 340 391 19,900 -1,392 Descending Denver Center
Wed 08:29:57 PM 40.5153 -105.2825 127° Southeast 331 381 18,400 -1,500 Descending Denver Center
Wed 08:30:59 PM 40.4678 -105.1517 115° Southeast 353 406 16,800 -1,403 Descending Denver Center
Wed 08:32:01 PM 40.4350 -105.0358 110° East 341 392 15,500 -1,113 Descending Denver Center
Wed 08:33:03 PM 40.4042 -104.9278 111° Southeast 320 368 14,500 -919 Descending Denver Center
Wed 08:34:05 PM 40.3775 -104.8292 110° East 270 311 13,600 -1,065 Descending Denver Center
Wed 08:35:07 PM 40.3514 -104.7433 112° Southeast 258 297 12,300 -774 Descending Denver Center
Wed 08:36:09 PM 40.2983 -104.6794 137° Southeast 257 296 12,000 -339 Descending Denver Center
Wed 08:37:11 PM 40.2306 -104.6806 181° South 246 283 11,600 -871 Descending Denver Center
Wed 08:38:13 PM 40.1636 -104.6825 181° South 241 277 10,200 -1,161 Descending Denver Center
Wed 08:39:15 PM 40.0911 -104.6839 181° South 241 277 9,200 -871 Descending Denver Center
Wed 08:40:17 PM 40.0339 -104.6856 181° South 204 235 8,400 -1,065 Descending Denver Center
Wed 08:41:19 PM 39.9817 -104.6864 181° South 182 209 7,000 -1,065 Descending Denver Center
Wed 08:42:21 PM 39.9433 -104.6864 180° South 139 160 6,200 -774 Descending Denver Center

Login

Don't have an account? Register now (free) for customized features, flight alerts, and more!